createdAt,value
2022-10-04T00:00:38.458Z,8.15
2022-10-04T00:03:18.564Z,8.14
2022-10-04T00:05:54.069Z,8.07
2022-10-04T00:08:40.732Z,8.10
2022-10-04T00:11:24.923Z,8.11
2022-10-04T00:13:58.333Z,8.00
2022-10-04T00:16:31.172Z,8.12
2022-10-04T00:19:14.997Z,8.10
2022-10-04T00:21:56.803Z,8.07
2022-10-04T00:24:28.494Z,8.06
2022-10-04T00:27:24.383Z,8.02
2022-10-04T00:30:25.915Z,8.01
2022-10-04T00:33:04.222Z,8.00
2022-10-04T00:35:30.656Z,7.97
2022-10-04T00:38:17.465Z,7.95
2022-10-04T00:41:10.243Z,7.91
2022-10-04T00:43:44.969Z,7.83
2022-10-04T00:46:16.196Z,7.81
2022-10-04T00:48:50.021Z,7.81
2022-10-04T00:51:27.873Z,7.77
2022-10-04T00:54:17.572Z,7.76
2022-10-04T00:56:51.676Z,7.77
2022-10-04T00:59:18.105Z,7.77
2022-10-04T01:01:49.458Z,7.75
2022-10-04T01:04:28.609Z,7.69
2022-10-04T01:06:58.702Z,7.70
2022-10-04T01:09:26.112Z,7.66
2022-10-04T01:12:16.675Z,7.61
2022-10-04T01:14:57.297Z,7.59
2022-10-04T01:17:23.795Z,7.60
2022-10-04T01:19:53.626Z,7.61
2022-10-04T01:22:35.436Z,7.57
2022-10-04T01:25:02.861Z,7.57
2022-10-04T01:27:33.759Z,7.55
2022-10-04T01:30:01.558Z,7.55
2022-10-04T01:32:28.305Z,7.51
2022-10-04T01:34:55.978Z,7.36
2022-10-04T01:37:22.612Z,7.45
2022-10-04T01:39:49.136Z,7.39
2022-10-04T01:42:23.363Z,7.44
2022-10-04T01:45:04.359Z,7.43
2022-10-04T01:47:41.027Z,7.30
2022-10-04T01:50:36.533Z,7.38
2022-10-04T01:53:12.351Z,7.36
2022-10-04T01:55:41.743Z,7.26
2022-10-04T01:58:16.721Z,7.34
2022-10-04T02:00:54.800Z,7.29
2022-10-04T02:03:30.479Z,7.26
2022-10-04T02:06:00.588Z,7.24
2022-10-04T02:08:32.407Z,7.25
2022-10-04T02:11:01.401Z,7.16
2022-10-04T02:13:33.790Z,7.23
2022-10-04T02:16:02.852Z,7.19
2022-10-04T02:18:31.742Z,7.16
2022-10-04T02:20:59.695Z,7.17
2022-10-04T02:23:28.097Z,7.03
2022-10-04T02:25:57.862Z,7.15
2022-10-04T02:28:25.182Z,7.11
2022-10-04T02:31:11.668Z,7.12
2022-10-04T02:33:42.737Z,7.08
2022-10-04T02:36:10.706Z,7.06
2022-10-04T02:39:00.746Z,6.92
2022-10-04T02:41:37.664Z,6.92
2022-10-04T02:44:20.506Z,7.00
2022-10-04T02:47:08.751Z,6.98
2022-10-04T02:49:41.036Z,6.94
2022-10-04T02:52:12.693Z,6.93
2022-10-04T02:54:52.633Z,6.92
2022-10-04T02:57:21.713Z,6.91
2022-10-04T02:59:49.449Z,6.89
2022-10-04T03:02:30.004Z,6.86
2022-10-04T03:05:04.391Z,6.84
2022-10-04T03:07:33.455Z,6.84
2022-10-04T03:10:01.870Z,6.82
2022-10-04T03:12:28.494Z,6.78
2022-10-04T03:14:55.490Z,6.75
2022-10-04T03:17:22.260Z,6.73
2022-10-04T03:19:50.082Z,6.72
2022-10-04T03:22:17.179Z,6.72
2022-10-04T03:24:54.397Z,6.68
2022-10-04T03:27:25.462Z,6.65
2022-10-04T03:29:58.865Z,6.64
2022-10-04T03:32:28.633Z,6.62
2022-10-04T03:35:02.090Z,6.58
2022-10-04T03:37:30.787Z,6.58
2022-10-04T03:39:58.139Z,6.59
2022-10-04T03:42:35.963Z,6.57
2022-10-04T03:45:15.585Z,6.56
2022-10-04T03:47:45.139Z,6.53
2022-10-04T03:50:26.545Z,6.50
2022-10-04T03:53:09.781Z,6.44
2022-10-04T03:55:40.051Z,6.37
2022-10-04T03:58:09.341Z,6.37
2022-10-04T04:00:45.922Z,6.41
2022-10-04T04:03:19.985Z,6.43
2022-10-04T04:05:52.907Z,6.42
2022-10-04T04:08:32.199Z,6.39
2022-10-04T04:11:01.899Z,6.34
2022-10-04T04:13:54.727Z,6.40
2022-10-04T04:16:26.245Z,6.40
2022-10-04T04:18:55.592Z,6.41
2022-10-04T04:21:25.725Z,6.40
2022-10-04T04:24:10.148Z,6.39
2022-10-04T04:26:45.902Z,6.38
2022-10-04T04:29:23.760Z,6.37
2022-10-04T04:32:05.415Z,6.36
2022-10-04T04:34:35.032Z,6.27
2022-10-04T04:37:05.070Z,6.32
2022-10-04T04:39:39.723Z,6.29
2022-10-04T04:42:18.144Z,6.20
2022-10-04T04:44:56.896Z,6.32
2022-10-04T04:47:33.813Z,6.32
2022-10-04T04:50:07.443Z,6.35
2022-10-04T04:52:35.899Z,6.30
2022-10-04T04:55:04.325Z,6.19
2022-10-04T04:57:33.365Z,6.26
2022-10-04T05:00:01.702Z,6.27
2022-10-04T05:02:29.646Z,6.26
2022-10-04T05:05:17.417Z,6.25
2022-10-04T05:07:44.018Z,6.24
2022-10-04T05:10:33.474Z,6.25
2022-10-04T05:13:01.841Z,6.26
2022-10-04T05:15:33.981Z,6.30
2022-10-04T05:18:02.006Z,6.31
2022-10-04T05:20:31.506Z,6.32
2022-10-04T05:22:58.858Z,6.30
2022-10-04T05:25:33.508Z,6.25
2022-10-04T05:28:00.394Z,6.28
2022-10-04T05:31:09.598Z,6.30
2022-10-04T05:33:51.600Z,6.24
2022-10-04T05:36:39.951Z,6.38
2022-10-04T05:39:32.123Z,6.43
2022-10-04T05:42:11.781Z,6.48
2022-10-04T05:44:51.963Z,6.52
2022-10-04T05:47:24.118Z,6.53
2022-10-04T05:49:54.158Z,6.62
2022-10-04T05:52:30.553Z,6.65
2022-10-04T05:55:12.247Z,6.76
2022-10-04T05:58:00.517Z,6.84
2022-10-04T06:00:40.820Z,6.90
2022-10-04T06:03:37.098Z,6.68
2022-10-04T06:06:18.937Z,7.02
2022-10-04T06:09:06.123Z,7.05
2022-10-04T06:12:09.742Z,7.09
2022-10-04T06:14:54.919Z,7.10
2022-10-04T06:17:45.234Z,7.23
2022-10-04T06:20:46.816Z,7.38
2022-10-04T06:23:16.668Z,7.53
2022-10-04T06:26:11.146Z,7.63
2022-10-04T06:28:46.588Z,7.74
2022-10-04T06:31:19.484Z,7.85
2022-10-04T06:34:07.877Z,7.90
2022-10-04T06:36:43.455Z,7.96
2022-10-04T06:39:31.527Z,8.10
2022-10-04T06:42:26.565Z,8.27
2022-10-04T06:45:00.650Z,8.41
2022-10-04T06:47:37.221Z,8.56
2022-10-04T06:50:37.743Z,8.67
2022-10-04T06:53:20.551Z,8.72
2022-10-04T06:56:15.592Z,8.73
2022-10-04T06:58:55.430Z,8.79
2022-10-04T07:01:29.208Z,8.91
2022-10-04T07:04:16.755Z,8.98
2022-10-04T07:07:25.911Z,9.14
2022-10-04T07:10:16.650Z,9.25
2022-10-04T07:12:48.995Z,9.31
2022-10-04T07:15:31.990Z,9.38
2022-10-04T07:18:03.805Z,9.46
2022-10-04T07:20:34.539Z,9.57
2022-10-04T07:23:15.162Z,9.61
2022-10-04T07:25:48.963Z,9.74
2022-10-04T07:28:39.304Z,9.89
2022-10-04T07:31:11.844Z,10.03
2022-10-04T07:33:51.580Z,10.13
2022-10-04T07:36:41.166Z,10.23
2022-10-04T07:39:14.323Z,10.28
2022-10-04T07:41:57.466Z,10.34
2022-10-04T07:44:34.086Z,10.49
2022-10-04T07:47:18.138Z,10.68
2022-10-04T07:49:44.705Z,10.85
2022-10-04T07:52:44.326Z,11.03
2022-10-04T07:55:18.990Z,11.20
2022-10-04T07:57:57.727Z,11.32
2022-10-04T08:00:49.527Z,11.38
2022-10-04T08:03:31.280Z,11.56
2022-10-04T08:06:26.117Z,11.62
2022-10-04T08:09:23.618Z,11.70
2022-10-04T08:12:14.915Z,11.63
2022-10-04T08:15:13.579Z,11.79
2022-10-04T08:18:06.080Z,11.82
2022-10-04T08:20:49.603Z,11.90
2022-10-04T08:23:36.340Z,11.94
2022-10-04T08:26:21.347Z,11.97
2022-10-04T08:29:27.161Z,12.04
2022-10-04T08:32:05.587Z,12.10
2022-10-04T08:35:03.323Z,12.17
2022-10-04T08:37:40.735Z,12.23
2022-10-04T08:40:33.262Z,12.28
2022-10-04T08:43:28.768Z,12.33
2022-10-04T08:46:10.228Z,12.38
2022-10-04T08:48:39.958Z,12.42
2022-10-04T08:51:54.228Z,12.46
2022-10-04T08:54:57.113Z,12.53
2022-10-04T08:57:29.434Z,12.57
2022-10-04T09:00:15.391Z,12.68
2022-10-04T09:03:12.933Z,12.75
2022-10-04T09:06:06.939Z,12.86
2022-10-04T09:08:58.018Z,12.91
2022-10-04T09:12:03.791Z,12.98
2022-10-04T09:15:07.796Z,13.14
2022-10-04T09:17:53.928Z,13.09
2022-10-04T09:20:40.922Z,13.59
2022-10-04T09:23:34.755Z,13.73
2022-10-04T09:26:13.229Z,13.68
2022-10-04T09:29:04.978Z,13.68
2022-10-04T09:31:55.985Z,13.72
2022-10-04T09:34:50.897Z,13.63
2022-10-04T09:37:32.183Z,13.68
2022-10-04T09:40:25.977Z,13.78
2022-10-04T09:42:58.647Z,13.87
2022-10-04T09:45:37.087Z,13.89
2022-10-04T09:48:19.437Z,14.00
2022-10-04T09:51:18.811Z,14.11
2022-10-04T09:53:58.340Z,14.16
2022-10-04T09:56:45.849Z,14.21
2022-10-04T09:59:40.055Z,14.23
2022-10-04T10:02:40.973Z,14.29
2022-10-04T10:05:36.649Z,14.29
2022-10-04T10:08:34.405Z,14.31
2022-10-04T10:11:31.319Z,14.32
2022-10-04T10:14:18.794Z,14.32
2022-10-04T10:17:04.573Z,14.29
2022-10-04T10:19:57.055Z,14.26
2022-10-04T10:22:31.195Z,14.27
2022-10-04T10:25:09.882Z,14.32
2022-10-04T10:27:48.794Z,14.38
2022-10-04T10:30:18.554Z,14.46
2022-10-04T10:33:06.375Z,14.55
2022-10-04T10:36:03.890Z,14.70
2022-10-04T10:38:42.633Z,15.16
2022-10-04T10:41:40.610Z,15.60
2022-10-04T10:44:23.614Z,15.93
2022-10-04T10:47:16.935Z,16.24
2022-10-04T10:50:25.315Z,16.62
2022-10-04T10:53:30.062Z,16.84
2022-10-04T10:56:30.092Z,17.13
2022-10-04T10:59:21.564Z,17.44
2022-10-04T11:02:10.283Z,17.66
2022-10-04T11:05:02.043Z,17.91
2022-10-04T11:07:50.808Z,18.01
2022-10-04T11:10:23.334Z,17.92
2022-10-04T11:13:05.169Z,18.00
2022-10-04T11:16:07.742Z,17.96
2022-10-04T11:18:49.346Z,18.11
2022-10-04T11:21:37.165Z,18.31
2022-10-04T11:24:22.373Z,18.51
2022-10-04T11:27:14.234Z,18.60
2022-10-04T11:30:04.386Z,18.45
2022-10-04T11:32:45.477Z,18.36
2022-10-04T11:35:24.121Z,18.38
2022-10-04T11:38:04.869Z,18.39
2022-10-04T11:40:58.172Z,18.43
2022-10-04T11:43:42.802Z,18.37
2022-10-04T11:46:44.085Z,18.49
2022-10-04T11:49:35.727Z,18.53
2022-10-04T11:52:18.276Z,18.48
2022-10-04T11:54:53.660Z,18.48
2022-10-04T11:57:33.231Z,18.56
2022-10-04T12:00:22.793Z,18.68
2022-10-04T12:02:59.335Z,18.88
2022-10-04T12:05:38.422Z,19.05
2022-10-04T12:08:10.943Z,19.14
2022-10-04T12:10:42.796Z,19.00
2022-10-04T12:13:32.554Z,19.05
2022-10-04T12:16:31.376Z,19.11
2022-10-04T12:19:00.797Z,19.18
2022-10-04T12:22:05.525Z,19.19
2022-10-04T12:24:57.975Z,19.23
2022-10-04T12:28:11.228Z,19.21
2022-10-04T12:30:55.928Z,19.21
2022-10-04T12:33:34.436Z,19.30
2022-10-04T12:36:24.676Z,19.43
2022-10-04T12:39:16.724Z,19.52
2022-10-04T12:42:16.555Z,19.63
2022-10-04T12:45:28.696Z,19.49
2022-10-04T12:47:57.893Z,19.64
2022-10-04T12:51:00.277Z,19.67
2022-10-04T12:53:34.619Z,19.62
2022-10-04T12:56:13.246Z,19.50
2022-10-04T12:59:12.295Z,19.34
2022-10-04T13:01:54.893Z,19.05
2022-10-04T13:04:34.197Z,18.76
2022-10-04T13:07:19.780Z,18.67
2022-10-04T13:10:26.496Z,18.47
2022-10-04T13:13:29.372Z,18.43
2022-10-04T13:19:22.594Z,18.27
2022-10-04T13:21:58.811Z,18.22
2022-10-04T13:24:57.926Z,18.13
2022-10-04T13:27:28.985Z,18.02
2022-10-04T13:30:20.356Z,17.88
2022-10-04T13:33:09.556Z,17.89
2022-10-04T13:35:40.913Z,17.91
2022-10-04T13:38:31.119Z,17.91
2022-10-04T13:41:15.612Z,17.94
2022-10-04T13:44:07.989Z,17.94
2022-10-04T13:46:40.648Z,17.96
2022-10-04T13:49:24.133Z,17.94
2022-10-04T13:52:18.263Z,17.95
2022-10-04T13:55:34.426Z,17.93
2022-10-04T13:58:26.058Z,17.89
2022-10-04T14:01:25.340Z,17.93
2022-10-04T14:04:00.641Z,17.97
2022-10-04T14:06:48.748Z,18.00
2022-10-04T14:09:40.430Z,18.00
2022-10-04T14:12:38.553Z,18.00
2022-10-04T14:15:25.882Z,17.98
2022-10-04T14:17:52.909Z,17.97
2022-10-04T14:20:46.896Z,17.96
2022-10-04T14:23:46.324Z,17.96
2022-10-04T14:26:32.664Z,17.98
2022-10-04T14:29:46.200Z,17.94
2022-10-04T14:32:31.210Z,17.88
2022-10-04T14:35:16.303Z,17.89
2022-10-04T14:37:55.298Z,17.88
2022-10-04T14:40:36.941Z,17.89
2022-10-04T14:43:21.674Z,17.87
2022-10-04T14:46:07.791Z,17.84
2022-10-04T14:48:56.016Z,17.77
2022-10-04T14:51:51.847Z,17.69
2022-10-04T14:54:35.285Z,17.65
2022-10-04T14:57:12.882Z,17.64
2022-10-04T15:00:10.002Z,17.60
2022-10-04T15:02:48.099Z,17.52
2022-10-04T15:05:53.110Z,17.45
2022-10-04T15:08:22.450Z,17.41
2022-10-04T15:10:52.714Z,17.38
2022-10-04T15:14:02.868Z,17.32
2022-10-04T15:16:53.088Z,17.16
2022-10-04T15:19:19.508Z,17.27
2022-10-04T15:21:55.023Z,17.24
2022-10-04T15:24:47.828Z,17.19
2022-10-04T15:27:29.560Z,17.18
2022-10-04T15:30:10.155Z,17.26
2022-10-04T15:33:15.650Z,17.25
2022-10-04T15:36:25.618Z,17.18
2022-10-04T15:39:01.720Z,17.10
2022-10-04T15:41:45.868Z,17.04
2022-10-04T15:44:27.727Z,17.00
2022-10-04T15:47:07.262Z,16.95
2022-10-04T15:49:52.805Z,16.93
2022-10-04T15:52:49.329Z,16.89
2022-10-04T15:55:21.900Z,16.85
2022-10-04T15:57:48.355Z,16.80
2022-10-04T16:00:22.367Z,16.79
2022-10-04T16:03:10.745Z,16.74
2022-10-04T16:05:44.086Z,16.70
2022-10-04T16:08:11.027Z,16.63
2022-10-04T16:11:00.455Z,16.57
2022-10-04T16:13:48.668Z,16.50
2022-10-04T16:16:18.267Z,16.43
2022-10-04T16:19:26.846Z,16.33
2022-10-04T16:22:07.767Z,16.14
2022-10-04T16:24:40.926Z,16.16
2022-10-04T16:27:20.430Z,16.08
2022-10-04T16:30:28.125Z,16.00
2022-10-04T16:33:06.242Z,15.90
2022-10-04T16:35:37.864Z,15.82
2022-10-04T16:38:13.218Z,15.74
2022-10-04T16:40:51.663Z,15.64
2022-10-04T16:43:18.104Z,15.54
2022-10-04T16:45:53.527Z,15.43
2022-10-04T16:48:46.226Z,15.33
2022-10-04T16:51:22.180Z,15.24
2022-10-04T16:54:05.958Z,15.15
2022-10-04T16:56:56.428Z,15.05
2022-10-04T16:59:43.959Z,14.96
2022-10-04T17:02:28.655Z,14.89
2022-10-04T17:05:00.992Z,14.79
2022-10-04T17:07:40.061Z,14.69
2022-10-04T17:10:31.248Z,14.62
2022-10-04T17:13:17.161Z,14.54
2022-10-04T17:16:05.320Z,14.45
2022-10-04T17:19:08.377Z,14.35
2022-10-04T17:21:34.821Z,14.29
2022-10-04T17:24:15.557Z,14.19
2022-10-04T17:27:05.626Z,14.10
2022-10-04T17:29:59.911Z,14.03
2022-10-04T17:32:40.864Z,13.95
2022-10-04T17:35:42.156Z,13.87
2022-10-04T17:38:19.320Z,13.81
2022-10-04T17:41:04.782Z,13.76
2022-10-04T17:43:42.147Z,13.69
2022-10-04T17:46:28.833Z,13.62
2022-10-04T17:49:20.992Z,13.58
2022-10-04T17:52:09.099Z,13.53
2022-10-04T17:54:56.920Z,13.46
2022-10-04T17:57:34.118Z,13.40
2022-10-04T18:00:12.635Z,13.33
2022-10-04T18:03:00.810Z,13.29
2022-10-04T18:05:30.814Z,13.23
2022-10-04T18:08:04.494Z,13.19
2022-10-04T18:10:47.957Z,13.10
2022-10-04T18:13:21.476Z,13.07
2022-10-04T18:15:57.234Z,13.03
2022-10-04T18:18:29.237Z,12.99
2022-10-04T18:21:04.454Z,12.94
2022-10-04T18:23:36.088Z,12.82
2022-10-04T18:26:09.314Z,12.87
2022-10-04T18:28:36.273Z,12.82
2022-10-04T18:31:23.113Z,12.75
2022-10-04T18:33:54.051Z,12.72
2022-10-04T18:36:24.518Z,12.69
2022-10-04T18:39:04.323Z,12.63
2022-10-04T18:41:49.774Z,12.64
2022-10-04T18:44:19.540Z,12.56
2022-10-04T18:46:51.083Z,12.56
2022-10-04T18:49:44.890Z,12.54
2022-10-04T18:52:21.081Z,12.46
2022-10-04T18:55:02.975Z,12.40
2022-10-04T18:57:59.760Z,12.36
2022-10-04T19:00:54.002Z,12.33
2022-10-04T19:03:20.685Z,12.26
2022-10-04T19:06:24.864Z,12.23
2022-10-04T19:09:11.992Z,12.21
2022-10-04T19:11:54.114Z,12.18
2022-10-04T19:14:23.614Z,12.17
2022-10-04T19:17:01.631Z,12.11
2022-10-04T19:19:55.584Z,12.07
2022-10-04T19:23:00.959Z,12.02
2022-10-04T19:26:17.480Z,11.96
2022-10-04T19:28:39.298Z,11.92
2022-10-04T19:31:34.089Z,11.89
2022-10-04T19:34:17.163Z,11.91
2022-10-04T19:36:59.928Z,11.90
2022-10-04T19:39:54.186Z,11.88
2022-10-04T19:42:29.151Z,11.80
2022-10-04T19:45:35.035Z,11.81
2022-10-04T19:48:08.471Z,11.80
2022-10-04T19:50:40.077Z,11.77
2022-10-04T19:53:17.536Z,11.73
2022-10-04T19:55:57.927Z,11.68
2022-10-04T19:58:41.707Z,11.51
2022-10-04T20:01:12.455Z,11.62
2022-10-04T20:03:40.102Z,11.52
2022-10-04T20:06:07.503Z,11.53
2022-10-04T20:09:02.246Z,11.49
2022-10-04T20:11:38.715Z,11.45
2022-10-04T20:14:06.615Z,11.43
2022-10-04T20:16:53.176Z,11.39
2022-10-04T20:19:30.051Z,11.33
2022-10-04T20:22:27.060Z,11.33
2022-10-04T20:24:53.662Z,11.30
2022-10-04T20:27:36.284Z,11.30
2022-10-04T20:30:12.482Z,11.27
2022-10-04T20:32:38.922Z,11.25
2022-10-04T20:35:09.734Z,11.23
2022-10-04T20:37:45.367Z,11.17
2022-10-04T20:40:43.218Z,11.14
2022-10-04T20:43:15.915Z,11.08
2022-10-04T20:45:45.326Z,11.04
2022-10-04T20:48:18.432Z,11.05
2022-10-04T20:50:49.314Z,11.01
2022-10-04T20:53:30.218Z,10.97
2022-10-04T20:56:08.778Z,10.97
2022-10-04T20:58:35.888Z,10.99
2022-10-04T21:01:16.889Z,10.97
2022-10-04T21:03:43.710Z,10.99
2022-10-04T21:06:12.509Z,11.02
2022-10-04T21:08:39.596Z,11.02
2022-10-04T21:11:21.102Z,10.99
2022-10-04T21:13:59.580Z,10.94
2022-10-04T21:16:42.878Z,10.91
2022-10-04T21:19:38.869Z,10.76
2022-10-04T21:22:08.670Z,10.86
2022-10-04T21:24:44.034Z,10.86
2022-10-04T21:27:24.562Z,10.86
2022-10-04T21:29:53.567Z,10.77
2022-10-04T21:32:21.079Z,10.83
2022-10-04T21:34:53.630Z,10.83
2022-10-04T21:37:21.213Z,10.83
2022-10-04T21:39:47.758Z,10.80
2022-10-04T21:42:14.295Z,10.76
2022-10-04T21:44:40.794Z,10.74
2022-10-04T21:47:07.402Z,10.64
2022-10-04T21:49:33.953Z,10.63
2022-10-04T21:52:00.519Z,10.63
2022-10-04T21:54:27.004Z,10.62
2022-10-04T21:56:54.059Z,10.47
2022-10-04T21:59:21.309Z,10.55
2022-10-04T22:01:47.818Z,10.52
2022-10-04T22:04:14.338Z,10.48
2022-10-04T22:06:41.315Z,10.49
2022-10-04T22:09:08.301Z,10.33
2022-10-04T22:11:34.907Z,10.42
2022-10-04T22:14:01.484Z,10.38
2022-10-04T22:16:28.176Z,10.20
2022-10-04T22:18:54.961Z,10.31
2022-10-04T22:21:21.473Z,10.28
2022-10-04T22:23:48.021Z,10.25
2022-10-04T22:26:17.789Z,10.21
2022-10-04T22:28:52.524Z,10.19
2022-10-04T22:31:27.841Z,10.15
2022-10-04T22:33:54.939Z,10.11
2022-10-04T22:36:31.313Z,10.05
2022-10-04T22:39:09.946Z,10.10
2022-10-04T22:41:45.116Z,10.06
2022-10-04T22:44:22.399Z,10.10
2022-10-04T22:46:53.023Z,10.10
2022-10-04T22:49:28.156Z,10.09
2022-10-04T22:51:56.413Z,10.09
2022-10-04T22:54:26.384Z,10.05
2022-10-04T22:56:53.762Z,10.04
2022-10-04T22:59:22.983Z,10.03
2022-10-04T23:01:49.519Z,10.01
2022-10-04T23:04:24.225Z,10.00
2022-10-04T23:06:52.129Z,9.92
2022-10-04T23:09:19.499Z,10.00
2022-10-04T23:11:46.273Z,9.99
2022-10-04T23:14:12.829Z,9.98
2022-10-04T23:16:39.491Z,9.89
2022-10-04T23:19:11.476Z,9.93
2022-10-04T23:21:39.697Z,9.92
2022-10-04T23:24:17.613Z,9.90
2022-10-04T23:26:58.771Z,9.88
2022-10-04T23:29:28.407Z,9.88
2022-10-04T23:31:55.835Z,9.84
2022-10-04T23:34:45.150Z,9.84
2022-10-04T23:37:21.581Z,9.85
2022-10-04T23:39:49.134Z,9.84
2022-10-04T23:42:21.313Z,9.84
2022-10-04T23:44:49.990Z,9.80
2022-10-04T23:47:19.013Z,9.78
2022-10-04T23:49:52.085Z,9.76
2022-10-04T23:52:18.538Z,9.72
2022-10-04T23:54:45.197Z,9.66
2022-10-04T23:57:20.113Z,9.66
2022-10-04T23:59:46.922Z,9.65
